Time;durP1;ratioP1;P1;durP2;ratioP2;P2;SDS_P1;SDS_P2;PMS_P1;PMS_P2;Temp;Humidity;BMP_temperature;BMP_pressure;BME280_temperature;BME280_humidity;BME280_pressure;Samples;Min_cycle;Max_cycle;Signal;HPM_P1;HPM_P2
2023/12/18 00:00:18;;;;;;;6.60;4.10;;;;;;;4.64;89.43;100046.77;78305;1297;3057945;-64
2023/12/18 00:02:45;;;;;;;6.70;4.60;;;;;;;4.79;88.73;100034.71;79221;1295;3012989;-65
2023/12/18 00:05:12;;;;;;;5.40;4.10;;;;;;;4.59;88.36;100026.95;79531;1298;3012126;-64
2023/12/18 00:07:41;;;;;;;7.20;4.40;;;;;;;4.18;90.23;100032.16;78091;1300;3028449;-62
2023/12/18 00:10:08;;;;;;;4.80;3.10;;;;;;;3.98;91.44;100027.64;79251;1296;3013925;-65
2023/12/18 00:12:36;;;;;;;7.30;4.20;;;;;;;4.13;91.21;100030.23;79450;1297;3011963;-63
2023/12/18 00:15:06;;;;;;;6.30;4.10;;;;;;;4.44;90.75;100030.65;78302;1300;3058596;-65
2023/12/18 00:17:33;;;;;;;4.90;3.90;;;;;;;4.67;89.48;100025.70;79560;1296;3012818;-67
2023/12/18 00:20:03;;;;;;;6.60;4.00;;;;;;;4.63;89.12;100031.34;78749;1300;3012962;-64
2023/12/18 00:22:30;;;;;;;7.90;5.00;;;;;;;4.40;89.63;100032.30;79467;1300;3013799;-65
2023/12/18 00:24:57;;;;;;;7.00;4.40;;;;;;;4.21;90.23;100029.33;79367;1297;3013370;-64
2023/12/18 00:27:26;;;;;;;5.50;2.80;;;;;;;4.10;90.37;100030.63;78210;1295;3069525;-64
2023/12/18 00:29:53;;;;;;;6.30;3.30;;;;;;;4.15;90.50;100029.11;79353;1295;3013965;-65
2023/12/18 00:32:20;;;;;;;6.20;3.50;;;;;;;4.72;90.04;100020.18;79238;1300;3011786;-64
2023/12/18 00:34:48;;;;;;;7.70;4.40;;;;;;;4.72;88.49;100022.77;78130;1300;3053066;-63
2023/12/18 00:37:15;;;;;;;4.70;3.00;;;;;;;4.76;88.94;100017.97;79219;1297;3018470;-64
2023/12/18 00:39:42;;;;;;;8.00;4.80;;;;;;;4.66;88.66;100019.29;79358;1300;3011463;-62
2023/12/18 00:42:10;;;;;;;9.40;5.10;;;;;;;4.52;88.87;100017.94;78107;1298;3027895;-65
2023/12/18 00:44:36;;;;;;;9.00;5.40;;;;;;;4.27;89.36;100025.18;79608;1300;3013015;-64
2023/12/18 00:47:04;;;;;;;5.80;3.40;;;;;;;3.99;91.56;100021.02;79630;1296;3011544;-64
2023/12/18 00:49:32;;;;;;;6.00;3.70;;;;;;;4.61;90.71;100009.55;78414;1298;3053033;-65
2023/12/18 00:51:59;;;;;;;9.10;4.90;;;;;;;5.05;88.77;100006.05;79340;1300;3013785;-65
2023/12/18 00:54:26;;;;;;;8.50;5.20;;;;;;;4.91;87.76;99995.52;79525;1300;3011963;-65
2023/12/18 00:56:55;;;;;;;9.50;5.90;;;;;;;4.65;88.73;99997.98;78219;1300;3026391;-63
2023/12/18 00:59:21;;;;;;;10.20;6.10;;;;;;;4.36;89.67;99992.52;79338;1298;3012480;-63
2023/12/18 01:01:48;;;;;;;10.40;6.40;;;;;;;3.90;91.60;99995.06;79570;1295;3011574;-64
2023/12/18 01:04:16;;;;;;;9.90;5.40;;;;;;;3.91;92.57;99990.89;80136;1298;3025936;-63
2023/12/18 01:06:44;;;;;;;9.00;5.70;;;;;;;4.74;91.86;99988.85;80786;1300;3012532;-66
2023/12/18 01:09:12;;;;;;;8.00;5.50;;;;;;;4.91;89.52;99980.58;80238;1297;3013426;-65
2023/12/18 01:11:40;;;;;;;13.40;6.50;;;;;;;4.98;89.13;99980.02;80099;1296;3068794;-65
2023/12/18 01:14:08;;;;;;;11.20;5.20;;;;;;;4.97;88.08;99983.72;81903;1295;3018296;-65
2023/12/18 01:16:35;;;;;;;10.90;5.60;;;;;;;4.58;89.14;99972.84;80271;1300;3011660;-66
2023/12/18 01:19:04;;;;;;;9.10;5.80;;;;;;;4.46;89.77;99974.90;78245;1298;3028034;-64
2023/12/18 01:21:30;;;;;;;8.20;4.00;;;;;;;4.18;90.57;99976.67;79524;1300;3013667;-66
2023/12/18 01:23:59;;;;;;;7.00;5.30;;;;;;;4.32;91.69;99969.03;79496;1301;3011836;-65
2023/12/18 01:26:27;;;;;;;10.00;5.80;;;;;;;4.86;90.05;99964.40;78166;1299;3067825;-64
2023/12/18 01:28:54;;;;;;;8.00;5.30;;;;;;;4.82;89.37;99972.51;79477;1297;3011723;-65
2023/12/18 01:31:24;;;;;;;8.20;5.50;;;;;;;4.80;89.57;99973.27;79379;1295;3011614;-65
2023/12/18 01:33:53;;;;;;;10.20;5.70;;;;;;;4.49;89.50;99971.70;78298;1294;3053127;-64
2023/12/18 01:36:20;;;;;;;8.50;5.80;;;;;;;4.22;91.03;99968.27;79575;1300;3013428;-64
2023/12/18 01:38:47;;;;;;;8.70;5.00;;;;;;;4.26;91.22;99971.09;79425;1299;3011660;-66
2023/12/18 01:41:16;;;;;;;10.30;5.10;;;;;;;4.78;90.80;99970.52;78105;1295;3067590;-64
2023/12/18 01:43:43;;;;;;;9.80;5.50;;;;;;;5.11;89.22;99971.82;79396;1300;3014852;-64
2023/12/18 01:46:10;;;;;;;9.70;6.00;;;;;;;5.27;87.99;99972.39;79386;1295;3011678;-64
2023/12/18 01:48:38;;;;;;;7.80;5.60;;;;;;;4.66;88.97;99966.91;78076;1295;3053587;-66
2023/12/18 01:51:04;;;;;;;7.20;5.20;;;;;;;4.63;89.59;99968.38;79519;1300;3013563;-64
2023/12/18 01:53:33;;;;;;;10.30;6.00;;;;;;;4.42;89.85;99958.70;79290;1301;3012054;-64
2023/12/18 01:56:01;;;;;;;8.70;5.30;;;;;;;4.13;91.68;99963.30;78210;1300;3068425;-66
2023/12/18 01:58:29;;;;;;;9.00;5.50;;;;;;;4.56;91.48;99961.29;79375;1295;3014515;-66
2023/12/18 02:00:56;;;;;;;8.00;5.20;;;;;;;5.17;89.28;99960.36;79435;1294;3011493;-64
2023/12/18 02:03:24;;;;;;;9.20;5.70;;;;;;;5.07;88.57;99962.58;78012;1298;3053625;-64
2023/12/18 02:05:51;;;;;;;9.60;4.90;;;;;;;4.84;88.97;99967.40;79493;1301;3015860;-66
2023/12/18 02:08:18;;;;;;;10.20;6.20;;;;;;;4.31;90.85;99961.77;79393;1300;3013567;-64
2023/12/18 02:10:46;;;;;;;11.00;6.00;;;;;;;4.12;92.00;99953.78;78103;1297;3068098;-64
2023/12/18 02:13:13;;;;;;;7.60;5.20;;;;;;;3.99;93.29;99961.91;79465;1295;3013724;-64
2023/12/18 02:15:40;;;;;;;7.30;5.00;;;;;;;4.49;92.88;99957.98;79270;1300;3011521;-65
2023/12/18 02:18:09;;;;;;;9.90;6.30;;;;;;;5.06;90.66;99956.70;78185;1298;3027835;-64
2023/12/18 02:20:35;;;;;;;9.90;5.50;;;;;;;4.93;89.68;99958.31;79472;1300;3013790;-66
2023/12/18 02:23:03;;;;;;;9.10;5.90;;;;;;;4.54;90.63;99954.89;79411;1299;3011761;-62
2023/12/18 02:25:31;;;;;;;10.70;6.20;;;;;;;4.44;91.19;99950.69;78133;1295;3068785;-66
2023/12/18 02:27:58;;;;;;;8.00;5.50;;;;;;;4.20;91.92;99951.66;79449;1295;3011534;-66
2023/12/18 02:30:24;;;;;;;9.80;5.70;;;;;;;4.68;92.55;99940.45;79300;1295;3013608;-63
2023/12/18 02:32:53;;;;;;;11.90;6.90;;;;;;;5.28;89.85;99943.70;78112;1296;3026717;-64
2023/12/18 02:35:20;;;;;;;8.10;5.60;;;;;;;4.94;90.03;99948.73;79356;1299;3013737;-63
2023/12/18 02:37:47;;;;;;;8.90;5.90;;;;;;;4.67;90.36;99945.16;79290;1299;3013425;-65
2023/12/18 02:40:15;;;;;;;9.00;6.00;;;;;;;4.54;91.13;99945.89;78052;1297;3028678;-63
2023/12/18 02:42:42;;;;;;;11.10;6.60;;;;;;;4.18;92.13;99942.02;79329;1297;3013443;-64
2023/12/18 02:45:09;;;;;;;7.20;5.30;;;;;;;4.15;93.15;99936.53;79383;1295;3013072;-64
2023/12/18 02:47:37;;;;;;;11.60;5.90;;;;;;;4.95;91.96;99937.05;78292;1297;3053315;-63
2023/12/18 02:50:06;;;;;;;8.00;5.10;;;;;;;5.08;89.97;99931.27;79241;1300;3013502;-65
2023/12/18 02:52:33;;;;;;;8.20;5.40;;;;;;;4.95;89.82;99926.47;79449;1300;3011699;-64
2023/12/18 02:55:02;;;;;;;9.80;6.10;;;;;;;4.55;90.94;99924.86;78195;1295;3069034;-63
2023/12/18 02:57:31;;;;;;;13.30;7.40;;;;;;;4.39;91.87;99928.95;79309;1295;3013295;-67
2023/12/18 03:00:00;;;;;;;11.20;6.30;;;;;;;4.09;92.84;99921.45;78894;1296;3011384;-65
2023/12/18 03:02:27;;;;;;;8.90;5.40;;;;;;;3.95;93.76;99924.77;79399;1296;3018924;-64
2023/12/18 03:04:54;;;;;;;12.50;5.60;;;;;;;4.70;93.16;99915.90;79291;1297;3011886;-64
2023/12/18 03:07:22;;;;;;;8.00;5.30;;;;;;;4.97;90.74;99917.02;78200;1300;3025616;-67
2023/12/18 03:09:49;;;;;;;8.40;5.30;;;;;;;4.73;90.78;99915.66;79511;1300;3013266;-65
2023/12/18 03:12:16;;;;;;;9.50;6.20;;;;;;;4.46;91.60;99918.86;79365;1295;3011541;-62
2023/12/18 03:14:44;;;;;;;10.40;6.80;;;;;;;4.43;92.15;99918.80;78104;1297;3055455;-64
2023/12/18 03:17:10;;;;;;;11.10;6.50;;;;;;;4.16;93.24;99914.33;79418;1297;3013674;-62
2023/12/18 03:19:37;;;;;;;6.60;5.10;;;;;;;4.08;93.68;99915.21;79329;1294;3011782;-65
2023/12/18 03:22:06;;;;;;;10.60;5.90;;;;;;;4.39;93.18;99907.97;78148;1295;3024945;-64
2023/12/18 03:24:32;;;;;;;9.90;5.30;;;;;;;4.71;92.51;99908.96;79520;1298;3013114;-64
2023/12/18 03:26:59;;;;;;;9.10;6.30;;;;;;;4.68;91.67;99908.87;79251;1294;3011694;-64
2023/12/18 03:29:27;;;;;;;8.40;5.20;;;;;;;4.71;91.88;99911.73;78228;1299;3027127;-64
2023/12/18 03:31:54;;;;;;;10.20;6.80;;;;;;;4.62;91.16;99916.52;79384;1294;3012934;-64
2023/12/18 03:34:21;;;;;;;7.20;3.90;;;;;;;4.31;91.98;99916.67;79413;1295;3011790;-63
2023/12/18 03:36:49;;;;;;;8.50;4.90;;;;;;;4.53;92.58;99918.16;78115;1295;3028978;-64
2023/12/18 03:39:16;;;;;;;7.40;5.00;;;;;;;4.73;91.83;99906.83;79431;1298;3018406;-65
2023/12/18 03:41:43;;;;;;;8.00;6.20;;;;;;;4.65;91.71;99906.35;79357;1298;3012262;-64
2023/12/18 03:44:11;;;;;;;8.20;5.50;;;;;;;4.57;91.92;99907.45;78068;1297;3027971;-63
2023/12/18 03:46:38;;;;;;;8.50;4.50;;;;;;;4.44;91.83;99903.14;79585;1294;3011566;-65
2023/12/18 03:49:05;;;;;;;5.70;4.00;;;;;;;4.20;92.80;99902.77;79384;1294;3011580;-63
2023/12/18 03:51:34;;;;;;;9.50;4.50;;;;;;;4.18;93.65;99906.65;78215;1297;3052933;-64
2023/12/18 03:54:01;;;;;;;6.50;4.00;;;;;;;4.63;92.73;99906.25;79386;1298;3013334;-63
2023/12/18 03:56:28;;;;;;;7.00;4.70;;;;;;;4.84;91.51;99895.91;79366;1295;3011839;-64
2023/12/18 03:58:56;;;;;;;6.80;4.50;;;;;;;4.88;91.16;99897.54;78142;1298;3025847;-63
2023/12/18 04:01:23;;;;;;;7.80;4.40;;;;;;;4.67;91.06;99889.80;79815;1294;3019273;-64
2023/12/18 04:03:50;;;;;;;7.20;4.20;;;;;;;4.53;91.11;99887.28;79401;1294;3012588;-63
2023/12/18 04:06:18;;;;;;;7.50;4.20;;;;;;;4.35;92.32;99894.53;78248;1299;3028852;-63
2023/12/18 04:08:45;;;;;;;6.00;3.70;;;;;;;4.74;91.85;99886.66;79383;1297;3018645;-65
2023/12/18 04:11:15;;;;;;;7.90;4.00;;;;;;;4.88;90.98;99889.21;79494;1299;3011722;-64
2023/12/18 04:13:43;;;;;;;5.40;3.70;;;;;;;4.51;92.08;99882.83;78200;1297;3056933;-64
2023/12/18 04:16:10;;;;;;;7.00;4.10;;;;;;;4.49;92.11;99890.33;79642;1295;3018790;-63
2023/12/18 04:18:37;;;;;;;7.10;4.60;;;;;;;4.29;92.55;99883.45;79616;1295;3011674;-64
2023/12/18 04:21:05;;;;;;;5.00;2.90;;;;;;;4.17;93.54;99884.98;78169;1294;3025744;-63
2023/12/18 04:23:32;;;;;;;6.50;3.60;;;;;;;4.57;93.38;99883.85;79366;1295;3012941;-63
2023/12/18 04:25:59;;;;;;;5.90;3.90;;;;;;;4.78;91.80;99871.95;79388;1297;3011679;-65
2023/12/18 04:28:27;;;;;;;6.60;3.60;;;;;;;4.86;91.15;99877.45;78530;1297;3028339;-64
2023/12/18 04:30:54;;;;;;;5.50;3.20;;;;;;;4.43;92.13;99882.86;79496;1294;3013310;-65
2023/12/18 04:33:21;;;;;;;9.00;5.20;;;;;;;4.50;92.18;99873.98;79437;1295;3011911;-67
2023/12/18 04:35:49;;;;;;;6.80;3.60;;;;;;;4.24;92.68;99878.91;78354;1297;3026912;-66
2023/12/18 04:38:16;;;;;;;6.20;3.90;;;;;;;4.31;93.22;99881.65;79571;1300;3012652;-66
2023/12/18 04:40:43;;;;;;;5.00;3.80;;;;;;;5.17;91.13;99881.33;79547;1297;3011519;-68
2023/12/18 04:43:11;;;;;;;6.30;4.30;;;;;;;4.82;90.28;99875.66;78123;1294;3056358;-64
2023/12/18 04:45:38;;;;;;;8.00;4.40;;;;;;;4.59;91.34;99876.87;79535;1294;3013092;-62
2023/12/18 04:48:05;;;;;;;8.70;4.90;;;;;;;4.44;92.29;99873.64;79318;1294;3011634;-64
2023/12/18 04:51:17;;;;;;;6.70;4.20;;;;;;;4.27;92.78;99870.99;79990;1304;3015758;-64
2023/12/18 04:53:43;;;;;;;11.70;4.60;;;;;;;4.17;94.63;99870.08;78849;1302;3011837;-66
2023/12/18 04:56:10;;;;;;;7.60;4.80;;;;;;;4.78;92.92;99861.38;79006;1305;3011770;-64
2023/12/18 04:58:38;;;;;;;8.10;5.50;;;;;;;4.98;91.41;99863.00;77729;1304;3026103;-62
2023/12/18 05:01:05;;;;;;;5.40;3.90;;;;;;;4.66;91.10;99861.38;79183;1301;3013467;-65
2023/12/18 05:03:32;;;;;;;6.70;4.30;;;;;;;4.38;92.55;99867.75;78860;1301;3011590;-67
2023/12/18 05:06:00;;;;;;;5.30;3.40;;;;;;;4.04;94.01;99870.80;78045;1301;3028679;-65
2023/12/18 05:08:28;;;;;;;7.90;3.80;;;;;;;3.95;94.83;99874.31;79376;1295;3013465;-66
2023/12/18 05:10:55;;;;;;;5.90;3.70;;;;;;;4.50;94.69;99860.99;79244;1295;3013585;-65
2023/12/18 05:13:23;;;;;;;5.20;4.10;;;;;;;4.63;93.30;99856.11;78178;1301;3052006;-64
2023/12/18 05:15:51;;;;;;;6.10;3.40;;;;;;;4.99;91.61;99855.00;79384;1298;3012916;-65
2023/12/18 05:18:18;;;;;;;7.60;4.30;;;;;;;4.73;91.17;99859.09;79233;1295;3011808;-66
2023/12/18 05:20:46;;;;;;;8.00;4.60;;;;;;;4.37;92.65;99856.87;78210;1296;3048509;-63
2023/12/18 05:23:13;;;;;;;5.90;4.10;;;;;;;4.24;93.67;99853.75;79321;1300;3013086;-65
2023/12/18 05:25:39;;;;;;;5.50;3.70;;;;;;;4.35;93.94;99862.98;79340;1301;3011490;-64
2023/12/18 05:28:07;;;;;;;5.30;2.70;;;;;;;4.70;92.98;99858.83;78227;1295;3025957;-66
2023/12/18 05:30:36;;;;;;;6.30;3.90;;;;;;;4.83;91.98;99861.22;79536;1296;3013106;-65
2023/12/18 05:33:04;;;;;;;7.90;4.30;;;;;;;4.66;92.82;99851.69;79296;1295;3012910;-65
2023/12/18 05:35:32;;;;;;;7.90;4.40;;;;;;;4.59;92.68;99858.82;78264;1300;3050026;-66
2023/12/18 05:37:58;;;;;;;8.10;4.70;;;;;;;4.38;93.24;99862.38;79411;1298;3012885;-66
2023/12/18 05:40:25;;;;;;;9.10;4.80;;;;;;;4.36;93.62;99858.97;79623;1298;3011792;-67
2023/12/18 05:42:53;;;;;;;8.50;3.70;;;;;;;5.02;92.34;99863.07;78270;1300;3025489;-65
2023/12/18 05:45:20;;;;;;;8.30;4.60;;;;;;;5.17;90.44;99854.63;79517;1295;3012919;-64
2023/12/18 05:47:47;;;;;;;9.30;4.80;;;;;;;5.21;90.43;99854.98;79226;1295;3012068;-64
2023/12/18 05:50:15;;;;;;;8.30;4.80;;;;;;;4.92;90.51;99860.94;78343;1298;3028271;-63
2023/12/18 05:52:42;;;;;;;9.40;5.90;;;;;;;4.46;92.31;99859.38;79515;1295;3020403;-64
2023/12/18 05:55:11;;;;;;;11.60;6.50;;;;;;;4.04;94.64;99850.68;79903;1300;3011871;-67
2023/12/18 05:57:41;;;;;;;11.80;5.70;;;;;;;4.05;96.40;99853.25;78230;1296;3051305;-65
2023/12/18 06:00:09;;;;;;;8.40;5.50;;;;;;;4.77;94.96;99855.50;79526;1295;3013140;-65
2023/12/18 06:02:39;;;;;;;9.00;6.50;;;;;;;4.96;92.01;99851.11;78946;1295;3013102;-65
2023/12/18 06:05:07;;;;;;;8.90;5.40;;;;;;;4.77;92.36;99858.96;79485;1297;3013735;-65
2023/12/18 06:07:34;;;;;;;7.60;4.60;;;;;;;4.85;91.99;99853.88;79579;1295;3013573;-66
2023/12/18 06:10:03;;;;;;;7.80;5.50;;;;;;;4.64;92.43;99856.59;78242;1298;3050685;-65
2023/12/18 06:12:30;;;;;;;6.30;4.20;;;;;;;4.39;93.49;99857.67;79703;1301;3014646;-67
2023/12/18 06:14:57;;;;;;;8.20;4.40;;;;;;;4.78;93.95;99857.38;79283;1295;3013627;-66
2023/12/18 06:17:25;;;;;;;6.90;4.80;;;;;;;5.28;92.08;99858.95;78365;1295;3050430;-64
2023/12/18 06:19:51;;;;;;;7.60;5.30;;;;;;;5.40;90.86;99857.67;79437;1301;3013874;-66
2023/12/18 06:22:19;;;;;;;7.90;5.20;;;;;;;5.02;91.34;99862.02;79438;1295;3012933;-64
2023/12/18 06:24:47;;;;;;;7.30;4.70;;;;;;;4.79;92.48;99853.52;78220;1298;3048682;-64
2023/12/18 06:27:14;;;;;;;9.40;5.20;;;;;;;4.87;91.91;99854.48;79526;1300;3015205;-65
2023/12/18 06:29:42;;;;;;;8.50;5.40;;;;;;;4.86;92.57;99857.67;79250;1298;3011639;-65
2023/12/18 06:32:10;;;;;;;9.30;5.60;;;;;;;5.62;90.39;99865.48;78321;1295;3051076;-68
2023/12/18 06:34:37;;;;;;;9.90;5.50;;;;;;;5.63;88.90;99861.77;79465;1295;3013764;-64
2023/12/18 06:37:04;;;;;;;9.00;5.10;;;;;;;5.34;89.55;99853.71;79726;1295;3011600;-66
2023/12/18 06:39:32;;;;;;;8.70;5.40;;;;;;;5.07;90.29;99859.08;78172;1300;3026723;-66
2023/12/18 06:41:59;;;;;;;11.50;7.00;;;;;;;4.92;91.53;99852.08;79550;1300;3011727;-66
2023/12/18 06:44:27;;;;;;;9.70;5.60;;;;;;;4.87;91.31;99854.52;79520;1300;3011653;-65
2023/12/18 06:46:55;;;;;;;10.00;6.10;;;;;;;5.06;92.23;99853.40;78294;1295;3052282;-63
2023/12/18 06:49:22;;;;;;;10.70;6.90;;;;;;;5.74;89.87;99857.42;79439;1297;3013317;-65
2023/12/18 06:51:50;;;;;;;11.70;5.20;;;;;;;5.91;88.24;99854.23;79247;1300;3011334;-65
2023/12/18 06:54:18;;;;;;;11.00;6.90;;;;;;;5.68;87.72;99862.81;78099;1301;3048922;-66
2023/12/18 06:56:45;;;;;;;12.20;7.10;;;;;;;5.18;89.74;99857.01;79595;1297;3018574;-66
2023/12/18 06:59:12;;;;;;;8.00;5.80;;;;;;;5.00;90.55;99853.73;79423;1301;3013794;-64
2023/12/18 07:01:40;;;;;;;13.00;7.70;;;;;;;5.05;90.47;99856.38;78069;1300;3051285;-66
2023/12/18 07:04:07;;;;;;;15.90;8.00;;;;;;;5.34;90.77;99843.64;79620;1295;3013255;-65
2023/12/18 07:06:34;;;;;;;12.40;8.00;;;;;;;5.44;89.72;99839.14;79539;1295;3011642;-66
2023/12/18 07:09:03;;;;;;;9.80;5.90;;;;;;;5.29;90.47;99834.77;78347;1299;3028905;-65
2023/12/18 07:11:30;;;;;;;10.50;5.60;;;;;;;5.32;90.18;99826.16;79535;1295;3012774;-65
2023/12/18 07:13:57;;;;;;;10.80;6.00;;;;;;;5.12;90.41;99830.11;79690;1300;3013315;-65
2023/12/18 07:16:25;;;;;;;7.90;5.50;;;;;;;4.92;92.14;99817.20;78482;1295;3050812;-67
2023/12/18 07:18:53;;;;;;;13.10;6.00;;;;;;;5.79;90.39;99828.20;79772;1295;3013065;-65
2023/12/18 07:21:20;;;;;;;11.50;6.20;;;;;;;5.79;88.15;99813.98;79615;1295;3011421;-65
2023/12/18 07:23:48;;;;;;;9.90;6.30;;;;;;;5.35;90.24;99817.03;78432;1301;3049715;-65
2023/12/18 07:26:15;;;;;;;9.70;6.80;;;;;;;5.17;91.41;99822.13;79324;1300;3019283;-66
2023/12/18 07:28:43;;;;;;;11.10;6.50;;;;;;;4.94;92.10;99815.25;79671;1300;3011608;-64
2023/12/18 07:31:11;;;;;;;15.20;6.80;;;;;;;4.83;92.85;99819.56;78278;1295;3050184;-64
2023/12/18 07:33:38;;;;;;;9.00;5.30;;;;;;;4.83;93.09;99815.20;79967;1295;3018891;-65
2023/12/18 07:36:04;;;;;;;9.90;5.70;;;;;;;5.49;92.79;99813.93;80481;1295;3011628;-68
2023/12/18 07:38:33;;;;;;;10.00;5.40;;;;;;;5.76;89.86;99822.05;78691;1300;3026074;-66
2023/12/18 07:41:02;;;;;;;11.70;6.20;;;;;;;5.71;89.67;99817.87;79777;1301;3012980;-67
2023/12/18 07:43:32;;;;;;;9.10;5.80;;;;;;;5.74;89.32;99816.04;79008;1296;3012950;-67
2023/12/18 07:45:58;;;;;;;13.20;6.20;;;;;;;5.55;89.47;99814.97;79674;1295;3018410;-66
2023/12/18 07:48:25;;;;;;;9.70;6.40;;;;;;;5.20;91.04;99813.88;79742;1295;3011543;-68
2023/12/18 07:50:55;;;;;;;8.20;5.70;;;;;;;5.13;91.58;99807.48;78272;1296;3025879;-66
2023/12/18 07:53:22;;;;;;;8.70;6.00;;;;;;;5.69;91.23;99802.82;79534;1295;3011748;-68
2023/12/18 07:55:49;;;;;;;11.30;7.10;;;;;;;6.04;89.19;99799.18;79479;1295;3011871;-68
2023/12/18 07:58:17;;;;;;;11.20;6.30;;;;;;;6.08;88.43;99791.73;78408;1296;3052453;-71
2023/12/18 08:00:44;;;;;;;10.30;6.60;;;;;;;5.84;88.68;99786.50;79443;1295;3018563;-67
2023/12/18 08:03:10;;;;;;;14.50;7.30;;;;;;;5.66;89.26;99790.62;79865;1300;3013727;-67
2023/12/18 08:05:38;;;;;;;11.90;7.00;;;;;;;5.48;89.67;99782.54;78361;1295;3026650;-66
2023/12/18 08:08:06;;;;;;;10.60;5.20;;;;;;;5.38;90.43;99785.14;79648;1295;3013004;-68
2023/12/18 08:10:32;;;;;;;11.20;7.70;;;;;;;6.25;88.56;99774.07;79526;1299;3013605;-68
2023/12/18 08:13:01;;;;;;;11.30;5.40;;;;;;;6.02;87.82;99779.42;78394;1300;3025941;-70
2023/12/18 08:15:27;;;;;;;11.60;6.40;;;;;;;6.19;87.72;99775.69;79792;1295;3013435;-66
2023/12/18 08:17:54;;;;;;;9.70;5.20;;;;;;;5.98;87.79;99767.40;79495;1301;3011596;-69
2023/12/18 08:20:22;;;;;;;11.40;6.50;;;;;;;5.63;88.71;99768.27;78190;1300;3048947;-67
2023/12/18 08:22:49;;;;;;;11.30;6.10;;;;;;;5.47;89.86;99766.07;79518;1295;3012849;-68
2023/12/18 08:25:16;;;;;;;10.10;4.60;;;;;;;5.33;90.94;99766.38;79467;1298;3013567;-73
2023/12/18 08:27:44;;;;;;;7.40;4.60;;;;;;;5.84;90.53;99757.79;78477;1301;3028609;-70
2023/12/18 08:30:11;;;;;;;6.20;3.70;;;;;;;6.00;88.90;99754.80;79590;1298;3012722;-66
2023/12/18 08:32:39;;;;;;;8.40;4.90;;;;;;;6.05;88.63;99750.44;79685;1301;3011527;-70
2023/12/18 08:35:07;;;;;;;10.70;6.10;;;;;;;5.94;88.29;99753.95;78392;1295;3050338;-68
2023/12/18 08:37:34;;;;;;;8.30;5.40;;;;;;;5.63;89.42;99749.17;79783;1295;3012992;-72
2023/12/18 08:40:01;;;;;;;10.20;5.80;;;;;;;5.48;89.85;99754.20;79959;1301;3013731;-67
2023/12/18 08:42:29;;;;;;;7.10;3.90;;;;;;;5.10;92.08;99756.05;78675;1295;3051348;-68
2023/12/18 08:44:56;;;;;;;8.00;4.20;;;;;;;5.73;91.69;99752.29;79649;1299;3012924;-66
2023/12/18 08:47:23;;;;;;;6.50;4.20;;;;;;;6.38;88.18;99747.99;79503;1296;3011709;-68
2023/12/18 08:49:51;;;;;;;5.90;4.20;;;;;;;6.15;87.55;99745.38;78488;1295;3026565;-68
2023/12/18 08:52:18;;;;;;;10.60;4.80;;;;;;;6.12;87.92;99748.27;79815;1300;3013145;-68
2023/12/18 08:54:45;;;;;;;9.10;5.40;;;;;;;5.62;89.11;99753.18;79734;1301;3011991;-70
2023/12/18 08:57:13;;;;;;;6.30;4.40;;;;;;;5.43;90.55;99749.50;78436;1301;3026129;-68
2023/12/18 08:59:40;;;;;;;5.30;3.60;;;;;;;5.37;90.81;99747.48;79658;1298;3013011;-67
2023/12/18 09:02:06;;;;;;;6.00;3.90;;;;;;;5.93;90.86;99743.20;79801;1295;3011548;-71
2023/12/18 09:04:35;;;;;;;6.40;4.20;;;;;;;6.46;87.72;99737.09;78348;1302;3049506;-68
2023/12/18 09:07:03;;;;;;;7.50;4.50;;;;;;;6.41;87.26;99737.95;79951;1300;3013145;-70
2023/12/18 09:09:29;;;;;;;6.80;4.40;;;;;;;6.08;88.07;99730.69;79418;1295;3011677;-71
2023/12/18 09:11:57;;;;;;;10.90;5.40;;;;;;;5.93;88.24;99730.02;78421;1301;3051622;-70
2023/12/18 09:14:24;;;;;;;8.00;4.80;;;;;;;5.79;89.04;99731.23;79564;1296;3012930;-72
2023/12/18 09:16:51;;;;;;;6.50;4.60;;;;;;;5.56;89.73;99733.07;79595;1295;3011705;-71
2023/12/18 09:19:19;;;;;;;5.90;4.30;;;;;;;5.80;90.98;99738.48;78518;1295;3026640;-72
2023/12/18 09:21:46;;;;;;;8.10;4.60;;;;;;;6.55;88.72;99737.21;79616;1295;3013043;-71
2023/12/18 09:24:13;;;;;;;7.20;5.10;;;;;;;6.27;87.58;99731.54;79950;1295;3011463;-71
2023/12/18 09:26:41;;;;;;;8.00;4.60;;;;;;;6.05;88.49;99729.38;80716;1298;3052351;-72
2023/12/18 09:29:08;;;;;;;7.10;4.90;;;;;;;5.88;89.72;99730.02;80298;1300;3018789;-69
2023/12/18 09:31:35;;;;;;;7.60;5.30;;;;;;;5.77;89.38;99730.05;79878;1300;3011968;-67
2023/12/18 09:34:03;;;;;;;6.20;3.10;;;;;;;5.56;90.62;99733.77;78311;1299;3026388;-67
2023/12/18 09:36:30;;;;;;;6.60;3.80;;;;;;;6.03;90.41;99724.46;79637;1296;3013237;-65
2023/12/18 09:38:57;;;;;;;5.80;4.20;;;;;;;6.50;88.79;99726.11;79530;1299;3011676;-69
2023/12/18 09:41:25;;;;;;;6.90;4.30;;;;;;;6.55;87.73;99723.99;78521;1298;3052867;-67
2023/12/18 09:43:52;;;;;;;7.00;4.70;;;;;;;6.40;87.46;99728.25;79492;1300;3012727;-67
2023/12/18 09:46:22;;;;;;;7.60;5.60;;;;;;;6.12;88.01;99727.05;79664;1301;3011767;-71
2023/12/18 09:48:51;;;;;;;9.00;5.10;;;;;;;6.03;88.45;99729.29;78420;1295;3049570;-70
2023/12/18 09:51:20;;;;;;;6.10;3.40;;;;;;;5.89;88.85;99720.24;79731;1296;3013267;-69
2023/12/18 09:53:50;;;;;;;7.20;4.00;;;;;;;6.11;89.63;99718.06;78645;1300;3051861;-68
2023/12/18 09:56:21;;;;;;;9.10;5.00;;;;;;;6.72;87.81;99720.88;80129;1298;3011593;-70
2023/12/18 09:58:50;;;;;;;10.00;5.30;;;;;;;6.70;86.99;99713.83;79140;1295;3069403;-72
2023/12/18 10:01:17;;;;;;;8.70;5.90;;;;;;;6.60;86.99;99712.52;79606;1295;3019436;-70
2023/12/18 10:03:44;;;;;;;8.00;5.30;;;;;;;6.15;88.04;99708.33;79548;1295;3012283;-71
2023/12/18 10:06:12;;;;;;;12.20;5.70;;;;;;;6.12;88.29;99712.81;78353;1295;3025840;-69
2023/12/18 10:08:39;;;;;;;9.10;4.80;;;;;;;5.87;89.26;99709.19;79663;1301;3013155;-70
2023/12/18 10:11:05;;;;;;;9.30;5.50;;;;;;;5.77;90.10;99711.81;79492;1301;3011646;-69
2023/12/18 10:13:34;;;;;;;9.10;5.80;;;;;;;6.30;89.81;99711.41;78335;1295;3026059;-70
2023/12/18 10:16:01;;;;;;;12.00;6.60;;;;;;;6.48;88.68;99710.00;79579;1296;3013500;-70
2023/12/18 10:18:28;;;;;;;10.40;6.10;;;;;;;6.64;88.41;99705.04;79439;1295;3011921;-69
2023/12/18 10:20:56;;;;;;;9.20;6.20;;;;;;;6.15;88.95;99702.77;78316;1296;3053211;-67
2023/12/18 10:23:23;;;;;;;11.60;6.30;;;;;;;6.16;89.65;99706.05;79657;1299;3018501;-67
2023/12/18 10:25:50;;;;;;;26.50;8.80;;;;;;;5.90;89.87;99700.92;79632;1300;3011874;-68
2023/12/18 10:28:18;;;;;;;11.50;6.00;;;;;;;5.91;90.25;99702.79;78302;1298;3028322;-70
2023/12/18 10:30:45;;;;;;;15.60;7.70;;;;;;;6.46;90.07;99705.05;79579;1295;3014162;-68
2023/12/18 10:33:12;;;;;;;11.30;6.70;;;;;;;6.75;88.15;99705.97;79535;1295;3013525;-69
2023/12/18 10:35:40;;;;;;;11.40;6.40;;;;;;;6.78;87.20;99708.29;78335;1296;3026956;-69
2023/12/18 10:38:09;;;;;;;11.50;7.30;;;;;;;6.64;87.51;99702.08;79495;1298;3013097;-68
2023/12/18 10:40:36;;;;;;;12.10;7.70;;;;;;;6.18;89.10;99701.10;79584;1301;3011527;-69
2023/12/18 10:43:21;;;;;;;15.60;8.30;;;;;;;6.05;90.03;99698.64;78508;1295;3069088;-69
2023/12/18 10:45:52;;;;;;;12.10;7.30;;;;;;;5.79;90.63;99703.73;78573;1296;3051240;-69
2023/12/18 10:48:20;;;;;;;9.80;6.00;;;;;;;5.65;91.64;99703.21;79546;1295;3013213;-69
2023/12/18 10:50:49;;;;;;;11.80;7.10;;;;;;;6.47;90.97;99698.55;78967;1295;3011729;-70
2023/12/18 10:53:17;;;;;;;11.30;6.30;;;;;;;6.98;87.60;99697.36;79398;1301;3013138;-71
2023/12/18 10:55:44;;;;;;;13.50;7.10;;;;;;;6.99;86.43;99698.57;79601;1301;3011775;-70
2023/12/18 10:58:12;;;;;;;14.40;8.40;;;;;;;6.80;86.98;99691.30;78390;1301;3052881;-67
2023/12/18 11:00:39;;;;;;;15.90;9.20;;;;;;;6.53;87.09;99696.58;79470;1301;3021106;-70
2023/12/18 11:03:06;;;;;;;15.80;8.70;;;;;;;6.21;88.34;99698.38;79507;1295;3011878;-71
2023/12/18 11:05:35;;;;;;;11.50;6.80;;;;;;;6.00;89.18;99692.20;78402;1301;3026850;-67
2023/12/18 11:08:02;;;;;;;9.20;6.20;;;;;;;6.39;89.59;99694.33;79520;1295;3013342;-70
2023/12/18 11:10:29;;;;;;;14.70;8.70;;;;;;;6.90;87.66;99694.75;79552;1295;3011361;-68
2023/12/18 11:13:27;;;;;;;14.60;8.50;;;;;;;6.90;87.41;99694.71;78379;1301;3052451;-69
2023/12/18 11:16:18;;;;;;;17.30;8.70;;;;;;;6.74;87.07;99696.08;78434;1306;3069655;-70
2023/12/18 11:18:49;;;;;;;12.20;8.10;;;;;;;6.45;87.67;99689.59;78347;1295;3050819;-69
2023/12/18 11:21:16;;;;;;;18.50;9.90;;;;;;;6.33;87.91;99691.45;79550;1295;3011564;-68
2023/12/18 11:23:45;;;;;;;14.70;8.50;;;;;;;6.06;89.11;99686.41;79087;1300;3011709;-69